sensor_id;sensor_type;location;lat;lon;timestamp;temperature;humidity
68719;DHT22;55696;52.138;5.444;2023-02-21T00:00:14;12.90;74.20
68719;DHT22;55696;52.138;5.444;2023-02-21T00:02:59;12.50;74.40
68719;DHT22;55696;52.138;5.444;2023-02-21T00:05:45;12.40;73.30
68719;DHT22;55696;52.138;5.444;2023-02-21T00:08:30;12.40;73.40
68719;DHT22;55696;52.138;5.444;2023-02-21T00:11:16;12.40;73.40
68719;DHT22;55696;52.138;5.444;2023-02-21T00:14:01;12.40;73.40
68719;DHT22;55696;52.138;5.444;2023-02-21T00:16:47;12.50;73.30
68719;DHT22;55696;52.138;5.444;2023-02-21T00:19:32;13.30;73.70
68719;DHT22;55696;52.138;5.444;2023-02-21T00:22:18;12.50;73.20
68719;DHT22;55696;52.138;5.444;2023-02-21T00:25:03;12.40;73.30
68719;DHT22;55696;52.138;5.444;2023-02-21T00:27:49;12.50;73.80
68719;DHT22;55696;52.138;5.444;2023-02-21T00:30:34;12.30;73.40
68719;DHT22;55696;52.138;5.444;2023-02-21T00:33:20;12.30;73.40
68719;DHT22;55696;52.138;5.444;2023-02-21T00:36:06;12.20;73.70
68719;DHT22;55696;52.138;5.444;2023-02-21T00:38:51;12.40;74.20
68719;DHT22;55696;52.138;5.444;2023-02-21T00:41:37;12.40;73.80
68719;DHT22;55696;52.138;5.444;2023-02-21T00:44:22;12.30;73.80
68719;DHT22;55696;52.138;5.444;2023-02-21T00:47:07;12.40;73.90
68719;DHT22;55696;52.138;5.444;2023-02-21T00:49:53;12.40;73.70
68719;DHT22;55696;52.138;5.444;2023-02-21T00:52:39;12.40;73.70
68719;DHT22;55696;52.138;5.444;2023-02-21T00:55:24;12.40;73.70
68719;DHT22;55696;52.138;5.444;2023-02-21T00:58:10;13.00;74.00
68719;DHT22;55696;52.138;5.444;2023-02-21T01:00:55;12.30;73.60
68719;DHT22;55696;52.138;5.444;2023-02-21T01:03:41;12.50;74.10
68719;DHT22;55696;52.138;5.444;2023-02-21T01:06:27;12.30;73.60
68719;DHT22;55696;52.138;5.444;2023-02-21T01:09:12;12.30;73.80
68719;DHT22;55696;52.138;5.444;2023-02-21T01:11:58;12.30;73.80
68719;DHT22;55696;52.138;5.444;2023-02-21T01:14:43;12.30;74.00
68719;DHT22;55696;52.138;5.444;2023-02-21T01:17:28;12.30;74.00
68719;DHT22;55696;52.138;5.444;2023-02-21T01:20:14;12.30;74.10
68719;DHT22;55696;52.138;5.444;2023-02-21T01:22:59;12.50;74.10
68719;DHT22;55696;52.138;5.444;2023-02-21T01:25:44;12.30;73.90
68719;DHT22;55696;52.138;5.444;2023-02-21T01:28:30;12.30;74.10
68719;DHT22;55696;52.138;5.444;2023-02-21T01:31:17;12.30;74.00
68719;DHT22;55696;52.138;5.444;2023-02-21T01:34:03;13.00;75.90
68719;DHT22;55696;52.138;5.444;2023-02-21T01:36:48;12.40;74.60
68719;DHT22;55696;52.138;5.444;2023-02-21T01:39:34;12.30;74.30
68719;DHT22;55696;52.138;5.444;2023-02-21T01:42:19;12.20;74.30
68719;DHT22;55696;52.138;5.444;2023-02-21T01:48:12;12.30;76.50
68719;DHT22;55696;52.138;5.444;2023-02-21T01:50:59;12.30;76.30
68719;DHT22;55696;52.138;5.444;2023-02-21T01:53:45;12.30;75.10
68719;DHT22;55696;52.138;5.444;2023-02-21T01:56:31;12.20;74.30
68719;DHT22;55696;52.138;5.444;2023-02-21T01:59:20;12.30;74.90
68719;DHT22;55696;52.138;5.444;2023-02-21T02:02:18;12.20;76.10
68719;DHT22;55696;52.138;5.444;2023-02-21T02:05:07;12.30;76.60
68719;DHT22;55696;52.138;5.444;2023-02-21T02:07:54;12.30;75.80
68719;DHT22;55696;52.138;5.444;2023-02-21T02:10:41;12.40;74.90
68719;DHT22;55696;52.138;5.444;2023-02-21T02:28:29;12.40;76.00
68719;DHT22;55696;52.138;5.444;2023-02-21T02:39:59;12.50;75.70
68719;DHT22;55696;52.138;5.444;2023-02-21T02:45:47;12.50;73.70
68719;DHT22;55696;52.138;5.444;2023-02-21T02:48:25;12.50;75.90
68719;DHT22;55696;52.138;5.444;2023-02-21T02:50:54;12.50;75.60
68719;DHT22;55696;52.138;5.444;2023-02-21T02:53:26;12.50;74.50
68719;DHT22;55696;52.138;5.444;2023-02-21T02:55:56;12.50;75.70
68719;DHT22;55696;52.138;5.444;2023-02-21T02:58:27;12.40;74.10
68719;DHT22;55696;52.138;5.444;2023-02-21T03:03:57;12.60;75.70
68719;DHT22;55696;52.138;5.444;2023-02-21T03:12:00;12.50;75.90
68719;DHT22;55696;52.138;5.444;2023-02-21T03:14:45;12.60;75.90
68719;DHT22;55696;52.138;5.444;2023-02-21T03:17:16;12.50;76.20
68719;DHT22;55696;52.138;5.444;2023-02-21T03:19:47;12.50;74.80
68719;DHT22;55696;52.138;5.444;2023-02-21T03:22:18;12.40;75.20
68719;DHT22;55696;52.138;5.444;2023-02-21T03:24:48;12.50;75.80
68719;DHT22;55696;52.138;5.444;2023-02-21T03:27:17;12.40;75.60
68719;DHT22;55696;52.138;5.444;2023-02-21T03:29:53;12.40;75.50
68719;DHT22;55696;52.138;5.444;2023-02-21T03:32:23;12.40;75.50
68719;DHT22;55696;52.138;5.444;2023-02-21T03:34:52;12.40;74.40
68719;DHT22;55696;52.138;5.444;2023-02-21T03:37:34;12.40;74.90
68719;DHT22;55696;52.138;5.444;2023-02-21T03:40:03;12.50;76.10
68719;DHT22;55696;52.138;5.444;2023-02-21T03:42:32;12.30;75.60
68719;DHT22;55696;52.138;5.444;2023-02-21T03:45:00;12.30;74.60
68719;DHT22;55696;52.138;5.444;2023-02-21T03:47:26;12.30;74.60
68719;DHT22;55696;52.138;5.444;2023-02-21T03:49:53;12.30;74.60
68719;DHT22;55696;52.138;5.444;2023-02-21T03:52:20;12.40;74.80
68719;DHT22;55696;52.138;5.444;2023-02-21T03:54:48;12.40;74.60
68719;DHT22;55696;52.138;5.444;2023-02-21T03:57:18;12.40;74.60
68719;DHT22;55696;52.138;5.444;2023-02-21T03:59:46;12.40;74.70
68719;DHT22;55696;52.138;5.444;2023-02-21T04:02:14;12.50;74.60
68719;DHT22;55696;52.138;5.444;2023-02-21T04:04:41;13.40;75.00
68719;DHT22;55696;52.138;5.444;2023-02-21T04:07:16;12.50;74.40
68719;DHT22;55696;52.138;5.444;2023-02-21T04:09:43;13.70;76.00
68719;DHT22;55696;52.138;5.444;2023-02-21T04:12:15;12.60;74.40
68719;DHT22;55696;52.138;5.444;2023-02-21T04:14:42;13.70;75.30
68719;DHT22;55696;52.138;5.444;2023-02-21T04:17:09;12.60;74.00
68719;DHT22;55696;52.138;5.444;2023-02-21T04:19:35;12.60;73.90
68719;DHT22;55696;52.138;5.444;2023-02-21T04:22:04;12.70;74.00
68719;DHT22;55696;52.138;5.444;2023-02-21T04:24:31;12.60;74.10
68719;DHT22;55696;52.138;5.444;2023-02-21T04:26:58;13.20;74.10
68719;DHT22;55696;52.138;5.444;2023-02-21T04:29:27;12.60;73.80
68719;DHT22;55696;52.138;5.444;2023-02-21T04:31:53;12.70;74.00
68719;DHT22;55696;52.138;5.444;2023-02-21T04:34:21;12.60;73.70
68719;DHT22;55696;52.138;5.444;2023-02-21T04:36:48;12.70;73.80
68719;DHT22;55696;52.138;5.444;2023-02-21T04:39:16;12.60;73.60
68719;DHT22;55696;52.138;5.444;2023-02-21T04:41:43;12.70;74.20
68719;DHT22;55696;52.138;5.444;2023-02-21T04:44:10;12.60;74.00
68719;DHT22;55696;52.138;5.444;2023-02-21T04:46:37;12.60;73.90
68719;DHT22;55696;52.138;5.444;2023-02-21T04:49:04;12.70;73.80
68719;DHT22;55696;52.138;5.444;2023-02-21T04:51:31;12.60;74.30
68719;DHT22;55696;52.138;5.444;2023-02-21T04:53:57;13.70;74.60
68719;DHT22;55696;52.138;5.444;2023-02-21T04:56:25;12.60;73.90
68719;DHT22;55696;52.138;5.444;2023-02-21T04:58:54;11.50;73.80
68719;DHT22;55696;52.138;5.444;2023-02-21T05:01:21;12.60;74.50
68719;DHT22;55696;52.138;5.444;2023-02-21T05:03:48;13.00;74.90
68719;DHT22;55696;52.138;5.444;2023-02-21T05:06:17;12.60;73.80
68719;DHT22;55696;52.138;5.444;2023-02-21T05:08:44;12.60;74.90
68719;DHT22;55696;52.138;5.444;2023-02-21T05:11:11;12.60;74.20
68719;DHT22;55696;52.138;5.444;2023-02-21T05:13:38;12.40;74.10
68719;DHT22;55696;52.138;5.444;2023-02-21T05:16:05;12.60;74.40
68719;DHT22;55696;52.138;5.444;2023-02-21T05:18:32;12.60;74.40
68719;DHT22;55696;52.138;5.444;2023-02-21T05:21:00;12.50;74.00
68719;DHT22;55696;52.138;5.444;2023-02-21T05:23:29;12.60;74.10
68719;DHT22;55696;52.138;5.444;2023-02-21T05:26:07;12.60;73.70
68719;DHT22;55696;52.138;5.444;2023-02-21T05:28:35;12.70;75.30
68719;DHT22;55696;52.138;5.444;2023-02-21T05:31:02;12.70;74.60
68719;DHT22;55696;52.138;5.444;2023-02-21T05:33:30;12.70;74.40
68719;DHT22;55696;52.138;5.444;2023-02-21T05:35:56;12.60;74.10
68719;DHT22;55696;52.138;5.444;2023-02-21T05:38:24;12.70;73.80
68719;DHT22;55696;52.138;5.444;2023-02-21T05:40:51;12.70;75.70
68719;DHT22;55696;52.138;5.444;2023-02-21T05:43:18;12.60;74.20
68719;DHT22;55696;52.138;5.444;2023-02-21T05:45:45;12.60;74.00
68719;DHT22;55696;52.138;5.444;2023-02-21T05:48:12;12.60;74.10
68719;DHT22;55696;52.138;5.444;2023-02-21T05:50:39;13.40;74.50
68719;DHT22;55696;52.138;5.444;2023-02-21T05:53:06;12.70;74.20
68719;DHT22;55696;52.138;5.444;2023-02-21T05:55:35;12.60;74.60
68719;DHT22;55696;52.138;5.444;2023-02-21T05:58:02;12.60;74.50
68719;DHT22;55696;52.138;5.444;2023-02-21T06:00:29;12.60;74.30
68719;DHT22;55696;52.138;5.444;2023-02-21T06:03:06;12.60;74.10
68719;DHT22;55696;52.138;5.444;2023-02-21T06:05:36;12.70;75.80
68719;DHT22;55696;52.138;5.444;2023-02-21T06:08:03;12.70;74.00
68719;DHT22;55696;52.138;5.444;2023-02-21T06:10:30;12.60;74.20
68719;DHT22;55696;52.138;5.444;2023-02-21T06:12:57;12.60;74.20
68719;DHT22;55696;52.138;5.444;2023-02-21T06:15:23;12.60;74.30
68719;DHT22;55696;52.138;5.444;2023-02-21T06:17:50;12.30;74.20
68719;DHT22;55696;52.138;5.444;2023-02-21T06:20:17;12.50;74.50
68719;DHT22;55696;52.138;5.444;2023-02-21T06:22:44;13.20;74.90
68719;DHT22;55696;52.138;5.444;2023-02-21T06:25:12;12.60;74.40
68719;DHT22;55696;52.138;5.444;2023-02-21T06:27:39;12.50;74.50
68719;DHT22;55696;52.138;5.444;2023-02-21T06:30:06;12.50;74.40
68719;DHT22;55696;52.138;5.444;2023-02-21T06:32:33;12.50;75.20
68719;DHT22;55696;52.138;5.444;2023-02-21T06:35:01;12.50;74.60
68719;DHT22;55696;52.138;5.444;2023-02-21T06:37:27;12.50;75.00
68719;DHT22;55696;52.138;5.444;2023-02-21T06:39:54;12.50;74.60
68719;DHT22;55696;52.138;5.444;2023-02-21T06:42:21;12.40;74.60
68719;DHT22;55696;52.138;5.444;2023-02-21T06:44:49;13.30;75.10
68719;DHT22;55696;52.138;5.444;2023-02-21T06:47:16;12.50;75.00
68719;DHT22;55696;52.138;5.444;2023-02-21T06:49:43;12.80;75.50
68719;DHT22;55696;52.138;5.444;2023-02-21T06:52:10;12.50;74.40
68719;DHT22;55696;52.138;5.444;2023-02-21T06:54:37;12.60;74.60
68719;DHT22;55696;52.138;5.444;2023-02-21T06:57:04;12.40;74.60
68719;DHT22;55696;52.138;5.444;2023-02-21T06:59:31;12.50;74.60
68719;DHT22;55696;52.138;5.444;2023-02-21T07:01:58;12.50;74.80
68719;DHT22;55696;52.138;5.444;2023-02-21T07:04:25;12.50;75.00
68719;DHT22;55696;52.138;5.444;2023-02-21T07:06:52;12.50;75.00
68719;DHT22;55696;52.138;5.444;2023-02-21T07:09:19;12.50;75.10
68719;DHT22;55696;52.138;5.444;2023-02-21T07:11:46;12.50;75.00
68719;DHT22;55696;52.138;5.444;2023-02-21T07:14:13;12.60;75.00
68719;DHT22;55696;52.138;5.444;2023-02-21T07:16:40;12.60;75.30
68719;DHT22;55696;52.138;5.444;2023-02-21T07:19:07;12.60;75.00
68719;DHT22;55696;52.138;5.444;2023-02-21T07:21:34;12.60;74.70
68719;DHT22;55696;52.138;5.444;2023-02-21T07:24:00;12.60;74.50
68719;DHT22;55696;52.138;5.444;2023-02-21T07:26:27;12.70;74.70
68719;DHT22;55696;52.138;5.444;2023-02-21T07:28:54;12.70;74.60
68719;DHT22;55696;52.138;5.444;2023-02-21T07:31:21;12.70;74.70
68719;DHT22;55696;52.138;5.444;2023-02-21T07:33:48;12.60;74.40
68719;DHT22;55696;52.138;5.444;2023-02-21T07:36:15;12.70;74.40
68719;DHT22;55696;52.138;5.444;2023-02-21T07:38:42;12.80;74.50
68719;DHT22;55696;52.138;5.444;2023-02-21T07:41:09;12.70;74.60
68719;DHT22;55696;52.138;5.444;2023-02-21T07:43:36;12.70;74.10
68719;DHT22;55696;52.138;5.444;2023-02-21T07:46:12;12.70;74.20
68719;DHT22;55696;52.138;5.444;2023-02-21T07:48:39;12.70;75.50
68719;DHT22;55696;52.138;5.444;2023-02-21T07:51:06;12.70;74.50
68719;DHT22;55696;52.138;5.444;2023-02-21T07:53:34;12.70;75.30
68719;DHT22;55696;52.138;5.444;2023-02-21T07:56:02;12.70;74.60
68719;DHT22;55696;52.138;5.444;2023-02-21T07:58:29;12.60;74.90
68719;DHT22;55696;52.138;5.444;2023-02-21T08:00:56;12.70;74.40
68719;DHT22;55696;52.138;5.444;2023-02-21T08:03:23;12.60;74.40
68719;DHT22;55696;52.138;5.444;2023-02-21T08:05:50;12.70;75.00
68719;DHT22;55696;52.138;5.444;2023-02-21T08:08:17;12.70;74.50
68719;DHT22;55696;52.138;5.444;2023-02-21T08:10:43;12.70;74.50
68719;DHT22;55696;52.138;5.444;2023-02-21T08:13:10;12.70;74.60
68719;DHT22;55696;52.138;5.444;2023-02-21T08:15:37;12.70;74.70
68719;DHT22;55696;52.138;5.444;2023-02-21T08:18:04;13.40;75.10
68719;DHT22;55696;52.138;5.444;2023-02-21T08:20:30;12.80;74.70
68719;DHT22;55696;52.138;5.444;2023-02-21T08:22:57;12.80;74.60
68719;DHT22;55696;52.138;5.444;2023-02-21T08:25:24;12.80;74.40
68719;DHT22;55696;52.138;5.444;2023-02-21T08:27:51;12.80;74.40
68719;DHT22;55696;52.138;5.444;2023-02-21T08:30:20;12.90;74.30
68719;DHT22;55696;52.138;5.444;2023-02-21T08:32:47;13.00;74.30
68719;DHT22;55696;52.138;5.444;2023-02-21T08:35:16;12.80;74.30
68719;DHT22;55696;52.138;5.444;2023-02-21T08:37:44;13.00;74.80
68719;DHT22;55696;52.138;5.444;2023-02-21T08:40:13;12.90;75.20
68719;DHT22;55696;52.138;5.444;2023-02-21T08:42:40;13.00;74.80
68719;DHT22;55696;52.138;5.444;2023-02-21T08:45:14;12.90;74.10
68719;DHT22;55696;52.138;5.444;2023-02-21T08:47:41;12.90;75.60
68719;DHT22;55696;52.138;5.444;2023-02-21T08:50:08;12.90;74.00
68719;DHT22;55696;52.138;5.444;2023-02-21T08:52:35;13.00;74.20
68719;DHT22;55696;52.138;5.444;2023-02-21T08:55:01;12.90;74.00
68719;DHT22;55696;52.138;5.444;2023-02-21T08:57:28;12.90;73.80
68719;DHT22;55696;52.138;5.444;2023-02-21T08:59:55;12.90;74.00
68719;DHT22;55696;52.138;5.444;2023-02-21T09:02:23;13.00;74.00
68719;DHT22;55696;52.138;5.444;2023-02-21T09:04:59;12.90;75.10
68719;DHT22;55696;52.138;5.444;2023-02-21T09:07:25;13.00;73.90
68719;DHT22;55696;52.138;5.444;2023-02-21T09:09:54;12.90;73.90
68719;DHT22;55696;52.138;5.444;2023-02-21T09:12:20;13.00;73.60
68719;DHT22;55696;52.138;5.444;2023-02-21T09:14:47;12.90;73.80
68719;DHT22;55696;52.138;5.444;2023-02-21T09:17:14;13.70;74.20
68719;DHT22;55696;52.138;5.444;2023-02-21T09:19:41;12.80;75.00
68719;DHT22;55696;52.138;5.444;2023-02-21T09:22:09;13.00;74.20
68719;DHT22;55696;52.138;5.444;2023-02-21T09:24:36;13.00;75.00
68719;DHT22;55696;52.138;5.444;2023-02-21T09:27:04;13.00;74.90
68719;DHT22;55696;52.138;5.444;2023-02-21T09:29:33;13.00;74.10
68719;DHT22;55696;52.138;5.444;2023-02-21T09:32:12;13.00;75.00
68719;DHT22;55696;52.138;5.444;2023-02-21T09:34:39;13.00;74.60
68719;DHT22;55696;52.138;5.444;2023-02-21T09:37:07;13.00;73.90
68719;DHT22;55696;52.138;5.444;2023-02-21T09:39:36;13.10;74.00
68719;DHT22;55696;52.138;5.444;2023-02-21T09:42:03;13.20;75.10
68719;DHT22;55696;52.138;5.444;2023-02-21T09:44:30;13.60;74.20
68719;DHT22;55696;52.138;5.444;2023-02-21T09:46:59;13.20;73.50
68719;DHT22;55696;52.138;5.444;2023-02-21T09:49:32;13.10;74.60
68719;DHT22;55696;52.138;5.444;2023-02-21T09:52:01;13.20;74.80
68719;DHT22;55696;52.138;5.444;2023-02-21T09:54:38;13.20;74.40
68719;DHT22;55696;52.138;5.444;2023-02-21T09:57:11;13.20;74.80
68719;DHT22;55696;52.138;5.444;2023-02-21T09:59:39;13.60;75.50
68719;DHT22;55696;52.138;5.444;2023-02-21T10:04:41;14.20;75.90
68719;DHT22;55696;52.138;5.444;2023-02-21T10:07:21;13.10;73.50
68719;DHT22;55696;52.138;5.444;2023-02-21T10:10:00;13.10;75.30
68719;DHT22;55696;52.138;5.444;2023-02-21T10:17:56;13.10;72.90
68719;DHT22;55696;52.138;5.444;2023-02-21T10:20:35;13.10;73.40
68719;DHT22;55696;52.138;5.444;2023-02-21T10:23:14;13.20;75.10
68719;DHT22;55696;52.138;5.444;2023-02-21T10:25:45;14.10;75.70
68719;DHT22;55696;52.138;5.444;2023-02-21T10:28:22;14.00;75.60
68719;DHT22;55696;52.138;5.444;2023-02-21T10:30:52;13.30;75.10
68719;DHT22;55696;52.138;5.444;2023-02-21T10:33:20;13.30;74.60
68719;DHT22;55696;52.138;5.444;2023-02-21T10:35:47;13.20;73.20
68719;DHT22;55696;52.138;5.444;2023-02-21T10:38:20;13.30;73.00
68719;DHT22;55696;52.138;5.444;2023-02-21T10:40:57;14.30;75.10
68719;DHT22;55696;52.138;5.444;2023-02-21T10:43:34;13.40;74.80
68719;DHT22;55696;52.138;5.444;2023-02-21T10:48:37;13.50;72.20
68719;DHT22;55696;52.138;5.444;2023-02-21T10:51:14;14.10;73.90
68719;DHT22;55696;52.138;5.444;2023-02-21T10:53:46;13.50;72.60
68719;DHT22;55696;52.138;5.444;2023-02-21T10:58:52;14.00;74.40
68719;DHT22;55696;52.138;5.444;2023-02-21T11:03:55;13.50;74.60
68719;DHT22;55696;52.138;5.444;2023-02-21T11:06:27;13.30;73.90
68719;DHT22;55696;52.138;5.444;2023-02-21T11:08:58;13.50;74.50
68719;DHT22;55696;52.138;5.444;2023-02-21T11:11:40;13.50;73.20
68719;DHT22;55696;52.138;5.444;2023-02-21T11:14:20;13.50;75.00
68719;DHT22;55696;52.138;5.444;2023-02-21T11:17:18;13.50;74.60
68719;DHT22;55696;52.138;5.444;2023-02-21T11:19:52;13.50;74.20
68719;DHT22;55696;52.138;5.444;2023-02-21T11:22:37;13.50;74.20
68719;DHT22;55696;52.138;5.444;2023-02-21T11:30:32;13.60;74.50
68719;DHT22;55696;52.138;5.444;2023-02-21T11:32:59;13.50;73.30
68719;DHT22;55696;52.138;5.444;2023-02-21T11:35:42;14.10;72.70
68719;DHT22;55696;52.138;5.444;2023-02-21T11:38:36;13.70;73.20
68719;DHT22;55696;52.138;5.444;2023-02-21T11:41:16;13.70;73.70
68719;DHT22;55696;52.138;5.444;2023-02-21T11:43:49;13.60;73.90
68719;DHT22;55696;52.138;5.444;2023-02-21T11:49:28;13.60;72.90
68719;DHT22;55696;52.138;5.444;2023-02-21T11:52:02;14.50;74.40
68719;DHT22;55696;52.138;5.444;2023-02-21T11:54:32;13.70;73.20
68719;DHT22;55696;52.138;5.444;2023-02-21T11:57:16;13.60;71.70
68719;DHT22;55696;52.138;5.444;2023-02-21T12:08:35;13.60;72.90
68719;DHT22;55696;52.138;5.444;2023-02-21T12:14:05;13.50;74.20
68719;DHT22;55696;52.138;5.444;2023-02-21T12:19:25;13.40;74.30
68719;DHT22;55696;52.138;5.444;2023-02-21T12:22:15;13.40;74.50
68719;DHT22;55696;52.138;5.444;2023-02-21T12:25:18;13.60;74.20
68719;DHT22;55696;52.138;5.444;2023-02-21T12:31:07;13.60;74.30
68719;DHT22;55696;52.138;5.444;2023-02-21T12:47:15;13.60;73.80
68719;DHT22;55696;52.138;5.444;2023-02-21T12:52:18;13.60;73.70
68719;DHT22;55696;52.138;5.444;2023-02-21T12:55:12;13.90;74.10
68719;DHT22;55696;52.138;5.444;2023-02-21T12:57:49;13.70;74.10
68719;DHT22;55696;52.138;5.444;2023-02-21T13:00:20;13.60;74.00
68719;DHT22;55696;52.138;5.444;2023-02-21T13:03:00;13.70;73.70
68719;DHT22;55696;52.138;5.444;2023-02-21T13:05:44;13.80;73.60
68719;DHT22;55696;52.138;5.444;2023-02-21T13:08:28;13.70;74.20
68719;DHT22;55696;52.138;5.444;2023-02-21T13:11:21;13.60;74.10
68719;DHT22;55696;52.138;5.444;2023-02-21T13:13:50;13.60;74.40
68719;DHT22;55696;52.138;5.444;2023-02-21T13:16:17;13.70;72.00
68719;DHT22;55696;52.138;5.444;2023-02-21T13:18:50;13.80;72.70
68719;DHT22;55696;52.138;5.444;2023-02-21T13:24:14;13.80;73.30
68719;DHT22;55696;52.138;5.444;2023-02-21T13:32:59;13.70;73.90
68719;DHT22;55696;52.138;5.444;2023-02-21T13:35:33;13.70;73.20
68719;DHT22;55696;52.138;5.444;2023-02-21T13:38:04;13.70;73.90
68719;DHT22;55696;52.138;5.444;2023-02-21T13:40:45;13.60;73.60
68719;DHT22;55696;52.138;5.444;2023-02-21T13:43:46;13.70;73.40
68719;DHT22;55696;52.138;5.444;2023-02-21T13:55:15;13.60;73.70
68719;DHT22;55696;52.138;5.444;2023-02-21T13:57:52;13.60;74.10
68719;DHT22;55696;52.138;5.444;2023-02-21T14:08:45;13.80;73.20
68719;DHT22;55696;52.138;5.444;2023-02-21T14:11:19;13.90;73.30
68719;DHT22;55696;52.138;5.444;2023-02-21T14:13:55;13.90;71.90
68719;DHT22;55696;52.138;5.444;2023-02-21T14:16:32;13.80;73.10
68719;DHT22;55696;52.138;5.444;2023-02-21T14:21:42;13.70;73.20
68719;DHT22;55696;52.138;5.444;2023-02-21T14:24:37;13.90;71.90
68719;DHT22;55696;52.138;5.444;2023-02-21T14:32:46;13.60;73.90
68719;DHT22;55696;52.138;5.444;2023-02-21T14:38:02;14.00;74.00
68719;DHT22;55696;52.138;5.444;2023-02-21T14:40:57;13.70;73.40
68719;DHT22;55696;52.138;5.444;2023-02-21T14:55:26;13.60;73.50
68719;DHT22;55696;52.138;5.444;2023-02-21T14:58:05;13.60;73.60
68719;DHT22;55696;52.138;5.444;2023-02-21T15:00:46;13.50;73.20
68719;DHT22;55696;52.138;5.444;2023-02-21T15:03:25;13.70;74.30
68719;DHT22;55696;52.138;5.444;2023-02-21T15:06:05;13.40;73.50
68719;DHT22;55696;52.138;5.444;2023-02-21T15:08:48;13.50;74.30
68719;DHT22;55696;52.138;5.444;2023-02-21T15:11:31;13.30;74.40
68719;DHT22;55696;52.138;5.444;2023-02-21T15:16:43;13.70;74.70
68719;DHT22;55696;52.138;5.444;2023-02-21T15:19:38;13.50;74.10
68719;DHT22;55696;52.138;5.444;2023-02-21T15:22:24;13.50;73.70
68719;DHT22;55696;52.138;5.444;2023-02-21T15:27:57;13.80;74.60
68719;DHT22;55696;52.138;5.444;2023-02-21T15:30:36;13.50;73.90
68719;DHT22;55696;52.138;5.444;2023-02-21T15:33:13;13.50;73.00
68719;DHT22;55696;52.138;5.444;2023-02-21T15:35:49;13.40;74.00
68719;DHT22;55696;52.138;5.444;2023-02-21T15:38:21;14.40;74.60
68719;DHT22;55696;52.138;5.444;2023-02-21T15:40:49;13.40;73.70
68719;DHT22;55696;52.138;5.444;2023-02-21T15:43:41;13.40;73.80
68719;DHT22;55696;52.138;5.444;2023-02-21T15:46:14;13.50;73.80
68719;DHT22;55696;52.138;5.444;2023-02-21T15:48:42;13.40;73.60
68719;DHT22;55696;52.138;5.444;2023-02-21T15:51:10;13.30;72.30
68719;DHT22;55696;52.138;5.444;2023-02-21T15:53:38;13.30;73.00
68719;DHT22;55696;52.138;5.444;2023-02-21T15:56:35;13.40;72.10
68719;DHT22;55696;52.138;5.444;2023-02-21T15:59:16;14.20;74.60
68719;DHT22;55696;52.138;5.444;2023-02-21T16:01:43;13.30;73.80
68719;DHT22;55696;52.138;5.444;2023-02-21T16:04:20;13.20;72.40
68719;DHT22;55696;52.138;5.444;2023-02-21T16:06:55;13.30;74.00
68719;DHT22;55696;52.138;5.444;2023-02-21T16:09:28;14.10;74.30
68719;DHT22;55696;52.138;5.444;2023-02-21T16:19:34;13.60;74.30
68719;DHT22;55696;52.138;5.444;2023-02-21T16:22:26;13.10;72.70
68719;DHT22;55696;52.138;5.444;2023-02-21T16:27:48;13.20;74.00
68719;DHT22;55696;52.138;5.444;2023-02-21T16:30:27;14.10;74.10
68719;DHT22;55696;52.138;5.444;2023-02-21T16:33:00;13.10;73.30
68719;DHT22;55696;52.138;5.444;2023-02-21T16:35:28;13.20;73.70
68719;DHT22;55696;52.138;5.444;2023-02-21T16:37:57;13.20;72.40
68719;DHT22;55696;52.138;5.444;2023-02-21T16:40:27;13.70;73.00
68719;DHT22;55696;52.138;5.444;2023-02-21T16:42:55;14.00;73.20
68719;DHT22;55696;52.138;5.444;2023-02-21T16:45:23;13.10;73.50
68719;DHT22;55696;52.138;5.444;2023-02-21T16:47:56;13.40;72.10
68719;DHT22;55696;52.138;5.444;2023-02-21T16:50:32;13.60;73.70
68719;DHT22;55696;52.138;5.444;2023-02-21T16:52:59;13.00;73.60
68719;DHT22;55696;52.138;5.444;2023-02-21T16:55:27;12.90;72.10
68719;DHT22;55696;52.138;5.444;2023-02-21T16:58:10;12.90;72.30
68719;DHT22;55696;52.138;5.444;2023-02-21T17:00:41;13.90;74.50
68719;DHT22;55696;52.138;5.444;2023-02-21T17:03:08;12.80;72.00
68719;DHT22;55696;52.138;5.444;2023-02-21T17:05:35;12.90;72.10
68719;DHT22;55696;52.138;5.444;2023-02-21T17:08:02;12.90;72.00
68719;DHT22;55696;52.138;5.444;2023-02-21T17:10:29;13.00;73.40
68719;DHT22;55696;52.138;5.444;2023-02-21T17:12:58;12.90;72.10
68719;DHT22;55696;52.138;5.444;2023-02-21T17:15:26;13.50;72.40
68719;DHT22;55696;52.138;5.444;2023-02-21T17:17:54;12.90;72.00
68719;DHT22;55696;52.138;5.444;2023-02-21T17:20:21;12.80;71.80
68719;DHT22;55696;52.138;5.444;2023-02-21T17:22:50;12.90;72.90
68719;DHT22;55696;52.138;5.444;2023-02-21T17:25:18;12.80;72.80
68719;DHT22;55696;52.138;5.444;2023-02-21T17:27:45;12.80;72.80
68719;DHT22;55696;52.138;5.444;2023-02-21T17:30:13;12.80;72.10
68719;DHT22;55696;52.138;5.444;2023-02-21T17:32:40;12.80;72.70
68719;DHT22;55696;52.138;5.444;2023-02-21T17:35:07;12.80;72.30
68719;DHT22;55696;52.138;5.444;2023-02-21T17:37:34;12.80;72.20
68719;DHT22;55696;52.138;5.444;2023-02-21T17:40:01;12.70;72.00
68719;DHT22;55696;52.138;5.444;2023-02-21T17:42:28;12.70;71.80
68719;DHT22;55696;52.138;5.444;2023-02-21T17:44:55;12.60;71.60
68719;DHT22;55696;52.138;5.444;2023-02-21T17:47:23;12.60;72.60
68719;DHT22;55696;52.138;5.444;2023-02-21T17:49:50;12.70;72.00
68719;DHT22;55696;52.138;5.444;2023-02-21T17:52:20;12.70;72.20
68719;DHT22;55696;52.138;5.444;2023-02-21T17:54:47;12.80;72.40
68719;DHT22;55696;52.138;5.444;2023-02-21T17:57:14;12.70;71.90
68719;DHT22;55696;52.138;5.444;2023-02-21T17:59:40;12.80;71.90
68719;DHT22;55696;52.138;5.444;2023-02-21T18:02:07;12.70;71.70
68719;DHT22;55696;52.138;5.444;2023-02-21T18:04:34;12.70;71.60
68719;DHT22;55696;52.138;5.444;2023-02-21T18:07:01;13.70;72.70
68719;DHT22;55696;52.138;5.444;2023-02-21T18:09:29;12.70;72.20
68719;DHT22;55696;52.138;5.444;2023-02-21T18:11:57;13.40;72.90
68719;DHT22;55696;52.138;5.444;2023-02-21T18:14:25;13.00;72.80
68719;DHT22;55696;52.138;5.444;2023-02-21T18:16:52;12.70;73.00
68719;DHT22;55696;52.138;5.444;2023-02-21T18:19:22;12.70;72.10
68719;DHT22;55696;52.138;5.444;2023-02-21T18:21:49;13.50;73.30
68719;DHT22;55696;52.138;5.444;2023-02-21T18:24:17;12.70;72.40
68719;DHT22;55696;52.138;5.444;2023-02-21T18:26:45;12.70;72.80
68719;DHT22;55696;52.138;5.444;2023-02-21T18:29:12;12.80;72.90
68719;DHT22;55696;52.138;5.444;2023-02-21T18:31:39;12.70;72.20
68719;DHT22;55696;52.138;5.444;2023-02-21T18:34:06;12.90;71.80
68719;DHT22;55696;52.138;5.444;2023-02-21T18:36:33;13.10;71.90
68719;DHT22;55696;52.138;5.444;2023-02-21T18:39:01;12.70;72.00
68719;DHT22;55696;52.138;5.444;2023-02-21T18:41:28;12.70;72.10
68719;DHT22;55696;52.138;5.444;2023-02-21T18:43:55;12.60;71.70
68719;DHT22;55696;52.138;5.444;2023-02-21T18:46:21;12.80;71.80